Time;durP1;ratioP1;P1;durP2;ratioP2;P2;SDS_P1;SDS_P2;PMS_P1;PMS_P2;Temp;Humidity;BMP_temperature;BMP_pressure;BME280_temperature;BME280_humidity;BME280_pressure;Samples;Min_cycle;Max_cycle;Signal;HPM_P1;HPM_P2
2022/07/17 00:00:25;;;;;;;9.48;5.50;;;;;;;;;;5054218;28;20086;-77
2022/07/17 00:02:50;;;;;;;10.27;5.30;;;;;;;;;;5075613;28;20032;-78
2022/07/17 00:05:16;;;;;;;9.25;5.30;;;;;;;;;;5057727;28;20448;-79
2022/07/17 00:07:41;;;;;;;9.45;5.55;;;;;;;;;;5075735;28;20382;-77
2022/07/17 00:10:07;;;;;;;9.57;5.78;;;;;;;;;;5075392;28;20041;-79
2022/07/17 00:12:33;;;;;;;11.80;5.88;;;;;;;;;;5074363;28;20036;-78
2022/07/17 00:14:58;;;;;;;8.73;5.35;;;;;;;;;;5057092;28;20039;-77
2022/07/17 00:17:24;;;;;;;8.98;5.53;;;;;;;;;;5041041;28;20016;-77
2022/07/17 00:19:49;;;;;;;11.20;5.18;;;;;;;;;;5073936;28;20040;-77
2022/07/17 00:22:15;;;;;;;9.82;5.00;;;;;;;;;;5074061;28;20036;-78
2022/07/17 00:24:40;;;;;;;7.63;4.50;;;;;;;;;;5075104;28;20525;-78
2022/07/17 00:27:05;;;;;;;9.27;5.07;;;;;;;;;;5057297;28;20032;-77
2022/07/17 00:29:31;;;;;;;10.73;4.70;;;;;;;;;;5073664;28;20039;-78
2022/07/17 00:31:56;;;;;;;8.43;5.15;;;;;;;;;;5075509;28;20028;-79
2022/07/17 00:34:22;;;;;;;9.20;4.80;;;;;;;;;;5057087;28;20060;-78
2022/07/17 00:36:47;;;;;;;11.65;4.30;;;;;;;;;;5062350;28;20386;-78
2022/07/17 00:39:13;;;;;;;7.78;4.50;;;;;;;;;;5094391;28;20028;-79
2022/07/17 00:41:39;;;;;;;9.40;4.40;;;;;;;;;;5089601;28;20013;-78
2022/07/17 00:44:08;;;;;;;7.30;3.92;;;;;;;;;;5073246;28;20063;-79
2022/07/17 00:46:33;;;;;;;7.00;4.32;;;;;;;;;;5092436;28;20024;-78
2022/07/17 00:48:59;;;;;;;11.13;4.10;;;;;;;;;;5093396;28;20054;-78
2022/07/17 00:51:24;;;;;;;9.07;4.50;;;;;;;;;;5074596;28;20424;-78
2022/07/17 00:53:50;;;;;;;8.68;4.40;;;;;;;;;;5053477;28;20051;-77
2022/07/17 00:56:15;;;;;;;8.63;4.82;;;;;;;;;;5051944;28;20086;-77
2022/07/17 00:58:41;;;;;;;7.32;4.43;;;;;;;;;;5056157;28;20086;-78
2022/07/17 01:01:06;;;;;;;9.90;4.00;;;;;;;;;;5071210;28;20447;-78
2022/07/17 01:03:32;;;;;;;8.50;4.47;;;;;;;;;;5093781;28;20046;-78
2022/07/17 01:05:58;;;;;;;7.10;4.25;;;;;;;;;;5088312;28;20041;-78
2022/07/17 01:08:23;;;;;;;7.30;4.30;;;;;;;;;;5088057;28;20103;-78
2022/07/17 01:10:48;;;;;;;8.05;4.60;;;;;;;;;;5088284;28;20105;-78
2022/07/17 01:13:14;;;;;;;9.50;4.40;;;;;;;;;;5083578;28;20040;-78
2022/07/17 01:15:40;;;;;;;8.40;4.50;;;;;;;;;;5088284;28;20093;-78
2022/07/17 01:18:07;;;;;;;6.30;3.78;;;;;;;;;;5092173;28;20475;-78
2022/07/17 01:20:32;;;;;;;9.60;4.25;;;;;;;;;;5060157;28;20400;-78
2022/07/17 01:22:58;;;;;;;8.75;4.78;;;;;;;;;;5072237;28;20033;-78
2022/07/17 01:25:23;;;;;;;8.52;3.95;;;;;;;;;;5072319;28;20021;-78
2022/07/17 01:27:49;;;;;;;7.78;4.25;;;;;;;;;;5077792;28;20479;-78
2022/07/17 01:30:14;;;;;;;8.82;4.22;;;;;;;;;;5063359;28;20029;-76
2022/07/17 01:32:40;;;;;;;6.18;4.53;;;;;;;;;;5090036;28;20546;-77
2022/07/17 01:35:06;;;;;;;10.95;4.35;;;;;;;;;;5091712;28;20388;-76
2022/07/17 01:37:31;;;;;;;9.80;4.65;;;;;;;;;;5080321;28;20037;-77
2022/07/17 01:39:57;;;;;;;6.25;4.22;;;;;;;;;;5072259;28;20078;-77
2022/07/17 01:42:22;;;;;;;8.20;4.50;;;;;;;;;;5072204;28;20078;-77
2022/07/17 01:44:48;;;;;;;11.75;4.88;;;;;;;;;;5072454;28;20017;-78
2022/07/17 01:47:17;;;;;;;7.45;4.60;;;;;;;;;;5072267;28;20430;-77
2022/07/17 01:49:49;;;;;;;8.75;4.90;;;;;;;;;;5072018;28;20479;-77
2022/07/17 01:52:15;;;;;;;9.00;4.47;;;;;;;;;;5072547;28;20119;-77
2022/07/17 01:54:41;;;;;;;8.32;4.60;;;;;;;;;;5073619;28;20116;-77
2022/07/17 01:57:06;;;;;;;7.90;4.70;;;;;;;;;;5072413;28;20046;-77
2022/07/17 01:59:31;;;;;;;10.10;4.72;;;;;;;;;;5052497;28;20036;-79
2022/07/17 02:01:57;;;;;;;7.88;4.70;;;;;;;;;;5064846;28;20032;-77
2022/07/17 02:04:22;;;;;;;9.77;4.53;;;;;;;;;;5073607;28;20028;-79
2022/07/17 02:06:48;;;;;;;6.68;4.35;;;;;;;;;;5072358;28;20055;-78
2022/07/17 02:09:13;;;;;;;8.30;4.85;;;;;;;;;;5060154;28;20051;-78
2022/07/17 02:11:39;;;;;;;11.48;4.93;;;;;;;;;;5080052;28;20071;-78
2022/07/17 02:14:05;;;;;;;10.30;4.85;;;;;;;;;;5071342;28;20036;-79
2022/07/17 02:16:30;;;;;;;9.13;5.03;;;;;;;;;;5051486;28;20040;-77
2022/07/17 02:18:55;;;;;;;8.50;5.13;;;;;;;;;;5071573;28;20051;-79
2022/07/17 02:21:23;;;;;;;10.07;5.30;;;;;;;;;;5055725;28;20489;-78
2022/07/17 02:23:49;;;;;;;6.95;4.82;;;;;;;;;;5073270;28;20017;-78
2022/07/17 02:26:14;;;;;;;10.00;5.13;;;;;;;;;;5072122;28;20090;-78
2022/07/17 02:28:40;;;;;;;10.10;4.75;;;;;;;;;;5055788;28;20020;-77
2022/07/17 02:31:05;;;;;;;9.55;5.07;;;;;;;;;;5072404;28;20032;-78
2022/07/17 02:33:31;;;;;;;8.15;5.55;;;;;;;;;;5073152;28;20059;-78
2022/07/17 02:35:56;;;;;;;11.55;5.97;;;;;;;;;;5073289;28;20487;-77
2022/07/17 02:38:22;;;;;;;7.80;5.22;;;;;;;;;;5056007;28;20036;-78
2022/07/17 02:40:47;;;;;;;7.82;5.28;;;;;;;;;;5071896;28;20037;-78
2022/07/17 02:43:12;;;;;;;9.77;4.97;;;;;;;;;;5073467;28;20023;-78
2022/07/17 02:45:38;;;;;;;8.20;5.20;;;;;;;;;;5071836;28;20032;-77
2022/07/17 02:48:03;;;;;;;7.97;5.25;;;;;;;;;;5038634;28;20020;-78
2022/07/17 02:50:29;;;;;;;7.43;5.25;;;;;;;;;;5072361;28;20112;-77
2022/07/17 02:52:54;;;;;;;12.20;4.95;;;;;;;;;;5074307;28;20082;-77
2022/07/17 02:55:20;;;;;;;9.48;4.80;;;;;;;;;;5052304;28;20041;-77
2022/07/17 02:57:48;;;;;;;7.05;4.88;;;;;;;;;;5072952;28;20028;-78
2022/07/17 03:00:15;;;;;;;6.28;4.40;;;;;;;;;;5072149;28;20402;-78
2022/07/17 03:02:41;;;;;;;9.60;5.03;;;;;;;;;;5072305;28;20017;-78
2022/07/17 03:05:06;;;;;;;9.98;5.28;;;;;;;;;;5071697;28;20036;-78
2022/07/17 03:07:32;;;;;;;8.85;5.20;;;;;;;;;;5055627;28;20028;-78
2022/07/17 03:09:57;;;;;;;8.93;5.22;;;;;;;;;;5081771;28;20437;-78
2022/07/17 03:12:23;;;;;;;8.88;4.93;;;;;;;;;;5073198;28;20047;-77
2022/07/17 03:14:48;;;;;;;8.27;4.68;;;;;;;;;;5071016;28;20037;-77
2022/07/17 03:17:14;;;;;;;7.47;4.55;;;;;;;;;;5071060;28;20028;-76
2022/07/17 03:19:40;;;;;;;6.55;4.63;;;;;;;;;;5071223;28;20472;-77
2022/07/17 03:22:05;;;;;;;8.23;4.50;;;;;;;;;;5071009;28;20028;-77
2022/07/17 03:24:30;;;;;;;10.15;4.68;;;;;;;;;;5071375;28;20043;-76
2022/07/17 03:26:56;;;;;;;5.45;3.92;;;;;;;;;;5074533;28;20023;-78
2022/07/17 03:29:22;;;;;;;7.47;4.40;;;;;;;;;;5076367;28;20388;-78
2022/07/17 03:31:47;;;;;;;9.77;3.90;;;;;;;;;;5076068;28;20031;-76
2022/07/17 03:34:13;;;;;;;7.72;4.57;;;;;;;;;;5075448;28;20047;-77
2022/07/17 03:36:38;;;;;;;9.32;4.40;;;;;;;;;;5075935;28;20031;-77
2022/07/17 03:39:04;;;;;;;7.05;4.28;;;;;;;;;;5075258;28;20063;-77
2022/07/17 03:41:30;;;;;;;8.10;3.90;;;;;;;;;;5075520;28;20501;-77
2022/07/17 03:43:55;;;;;;;4.38;2.78;;;;;;;;;;5074717;28;20028;-77
2022/07/17 03:46:21;;;;;;;4.85;3.00;;;;;;;;;;5075020;28;20027;-77
2022/07/17 03:48:46;;;;;;;9.52;3.08;;;;;;;;;;5074502;28;20536;-76
2022/07/17 03:51:12;;;;;;;6.25;2.85;;;;;;;;;;5074373;28;20086;-77
2022/07/17 03:53:37;;;;;;;3.85;2.33;;;;;;;;;;5074809;28;20483;-78
2022/07/17 03:56:03;;;;;;;5.38;2.55;;;;;;;;;;5057621;28;20107;-78
2022/07/17 03:58:28;;;;;;;7.53;2.60;;;;;;;;;;5075760;28;20492;-78
2022/07/17 04:00:54;;;;;;;7.65;2.50;;;;;;;;;;5074603;28;20021;-77
2022/07/17 04:03:20;;;;;;;3.53;2.05;;;;;;;;;;5075196;28;20034;-77
2022/07/17 04:05:45;;;;;;;6.50;2.70;;;;;;;;;;5074944;28;20024;-77
2022/07/17 04:08:12;;;;;;;5.60;2.50;;;;;;;;;;5057979;28;20032;-77
2022/07/17 04:10:38;;;;;;;5.15;2.50;;;;;;;;;;5073305;28;20066;-78
2022/07/17 04:13:03;;;;;;;5.95;2.80;;;;;;;;;;5095094;28;20081;-77
2022/07/17 04:18:13;;;;;;;6.38;2.45;;;;;;;;;;5093965;28;20036;-77
2022/07/17 04:20:39;;;;;;;6.85;2.40;;;;;;;;;;5094236;28;20496;-79
2022/07/17 04:23:05;;;;;;;4.43;1.92;;;;;;;;;;5093251;28;20028;-78
2022/07/17 04:25:30;;;;;;;5.32;2.20;;;;;;;;;;5092820;28;20012;-77
2022/07/17 04:27:56;;;;;;;6.22;2.25;;;;;;;;;;5094765;28;20505;-78
2022/07/17 04:30:21;;;;;;;5.28;2.10;;;;;;;;;;5063227;28;20069;-78
2022/07/17 04:32:47;;;;;;;5.75;2.00;;;;;;;;;;5076617;28;20048;-78
2022/07/17 04:35:12;;;;;;;5.45;2.00;;;;;;;;;;5092956;28;20111;-78
2022/07/17 04:37:38;;;;;;;5.13;2.17;;;;;;;;;;5092501;28;20089;-77
2022/07/17 04:40:03;;;;;;;5.93;2.50;;;;;;;;;;5063069;28;20398;-78
2022/07/17 04:42:29;;;;;;;4.97;1.95;;;;;;;;;;5093424;28;20042;-78
2022/07/17 04:44:54;;;;;;;4.55;2.28;;;;;;;;;;5075609;28;20027;-78
2022/07/17 04:47:20;;;;;;;7.80;3.55;;;;;;;;;;5094700;28;20028;-78
2022/07/17 04:49:45;;;;;;;3.78;1.40;;;;;;;;;;5075589;28;20024;-78
2022/07/17 04:52:11;;;;;;;5.22;1.45;;;;;;;;;;5092608;28;20608;-78
2022/07/17 04:54:36;;;;;;;4.38;1.33;;;;;;;;;;5093364;28;20024;-78
2022/07/17 04:57:02;;;;;;;7.53;1.50;;;;;;;;;;5093947;28;20039;-78
2022/07/17 04:59:27;;;;;;;5.60;1.77;;;;;;;;;;5092431;28;20067;-78
2022/07/17 05:01:52;;;;;;;5.13;1.45;;;;;;;;;;5092934;28;20040;-77
2022/07/17 05:04:18;;;;;;;3.35;1.42;;;;;;;;;;5058570;28;20536;-78
2022/07/17 05:06:44;;;;;;;3.88;1.52;;;;;;;;;;5082352;28;20029;-76
2022/07/17 05:09:09;;;;;;;4.07;1.67;;;;;;;;;;5076747;28;20094;-77
2022/07/17 05:11:36;;;;;;;2.05;1.10;;;;;;;;;;5092444;28;20548;-78
2022/07/17 05:14:02;;;;;;;3.58;1.25;;;;;;;;;;5075490;28;20032;-79
2022/07/17 05:16:27;;;;;;;2.58;1.00;;;;;;;;;;5075694;28;20487;-76
2022/07/17 05:18:53;;;;;;;3.22;1.15;;;;;;;;;;5089322;28;20031;-78
2022/07/17 05:21:18;;;;;;;1.98;0.98;;;;;;;;;;5066218;28;20070;-77
2022/07/17 05:23:44;;;;;;;5.47;1.73;;;;;;;;;;5093174;28;20070;-79
2022/07/17 05:26:09;;;;;;;2.95;1.95;;;;;;;;;;5081848;28;20495;-78
2022/07/17 05:28:35;;;;;;;4.93;1.40;;;;;;;;;;5076109;28;20061;-76
2022/07/17 05:31:00;;;;;;;4.28;1.17;;;;;;;;;;5082905;28;20111;-78
2022/07/17 05:33:26;;;;;;;5.35;1.30;;;;;;;;;;5074172;28;20520;-78
2022/07/17 05:35:51;;;;;;;2.95;1.20;;;;;;;;;;5065936;28;20097;-79
2022/07/17 05:38:17;;;;;;;4.65;1.13;;;;;;;;;;5075209;28;20029;-78
2022/07/17 05:40:42;;;;;;;5.65;1.27;;;;;;;;;;5082928;28;20093;-77
2022/07/17 05:43:08;;;;;;;3.67;1.40;;;;;;;;;;5091520;28;20036;-79
2022/07/17 05:45:33;;;;;;;4.05;1.20;;;;;;;;;;5091795;28;20036;-79
2022/07/17 05:47:59;;;;;;;3.72;1.30;;;;;;;;;;5091288;28;20023;-78
2022/07/17 05:50:24;;;;;;;3.83;1.35;;;;;;;;;;5091583;28;20040;-77
2022/07/17 05:52:50;;;;;;;5.63;1.10;;;;;;;;;;5090647;28;20475;-77
2022/07/17 05:55:15;;;;;;;2.83;1.20;;;;;;;;;;5091389;28;20083;-78
2022/07/17 05:57:41;;;;;;;4.75;1.00;;;;;;;;;;5090419;28;20028;-79
2022/07/17 06:00:07;;;;;;;4.45;1.17;;;;;;;;;;5090945;28;20032;-78
2022/07/17 06:02:37;;;;;;;3.30;1.45;;;;;;;;;;5073875;28;20028;-78
2022/07/17 06:05:03;;;;;;;3.60;1.75;;;;;;;;;;5090846;28;20130;-78
2022/07/17 06:07:28;;;;;;;4.03;1.30;;;;;;;;;;5089534;28;20044;-78
2022/07/17 06:09:53;;;;;;;7.13;1.35;;;;;;;;;;5090979;28;20114;-78
2022/07/17 06:12:19;;;;;;;2.95;0.93;;;;;;;;;;5067659;28;20407;-78
2022/07/17 06:14:44;;;;;;;3.65;1.20;;;;;;;;;;5061684;28;20564;-78
2022/07/17 06:17:10;;;;;;;2.58;1.23;;;;;;;;;;5071435;28;20028;-77
2022/07/17 06:19:36;;;;;;;2.08;1.20;;;;;;;;;;5091538;28;20429;-78
2022/07/17 06:22:01;;;;;;;3.08;1.17;;;;;;;;;;5091901;28;20032;-78
2022/07/17 06:24:27;;;;;;;3.22;1.25;;;;;;;;;;5092625;28;20031;-79
2022/07/17 06:26:52;;;;;;;2.20;1.20;;;;;;;;;;5073500;28;20107;-78
2022/07/17 06:29:18;;;;;;;5.30;1.48;;;;;;;;;;5092302;28;20081;-78
2022/07/17 06:31:43;;;;;;;7.32;1.80;;;;;;;;;;5090220;28;20523;-77
2022/07/17 06:34:08;;;;;;;4.18;1.45;;;;;;;;;;5091357;28;20092;-79
2022/07/17 06:36:34;;;;;;;3.53;1.15;;;;;;;;;;5090824;28;20032;-79
2022/07/17 06:38:59;;;;;;;3.58;1.30;;;;;;;;;;5090577;28;20027;-78
2022/07/17 06:41:25;;;;;;;3.00;1.20;;;;;;;;;;5089134;28;20024;-78
2022/07/17 06:43:50;;;;;;;2.72;1.10;;;;;;;;;;5091704;28;20032;-77
2022/07/17 06:46:15;;;;;;;2.92;1.10;;;;;;;;;;5090855;28;20588;-77
2022/07/17 06:48:41;;;;;;;2.88;1.13;;;;;;;;;;5091041;28;20036;-77
2022/07/17 06:51:06;;;;;;;3.47;0.90;;;;;;;;;;5090746;28;20486;-78
2022/07/17 06:53:32;;;;;;;5.32;1.10;;;;;;;;;;5091100;28;20040;-82
2022/07/17 06:55:57;;;;;;;2.70;1.40;;;;;;;;;;5091525;28;20111;-78
2022/07/17 06:58:23;;;;;;;4.25;2.03;;;;;;;;;;5091736;28;20124;-79
2022/07/17 07:00:48;;;;;;;3.72;1.35;;;;;;;;;;5091203;28;20043;-80
2022/07/17 07:03:14;;;;;;;2.92;1.10;;;;;;;;;;5065273;28;20396;-80
2022/07/17 07:05:39;;;;;;;1.23;0.73;;;;;;;;;;5056944;28;20094;-79
2022/07/17 07:08:05;;;;;;;2.65;1.00;;;;;;;;;;5076776;28;20025;-78
2022/07/17 07:10:30;;;;;;;2.60;0.70;;;;;;;;;;5079311;28;20499;-79
2022/07/17 07:12:56;;;;;;;2.63;0.95;;;;;;;;;;5074411;28;20041;-80
2022/07/17 07:15:23;;;;;;;1.50;1.00;;;;;;;;;;5067620;28;20127;-79
2022/07/17 07:17:48;;;;;;;2.53;0.98;;;;;;;;;;5086297;28;20454;-79
2022/07/17 07:20:14;;;;;;;2.10;1.10;;;;;;;;;;5050359;28;20036;-80
2022/07/17 07:22:39;;;;;;;2.50;0.98;;;;;;;;;;5080722;28;20036;-78
2022/07/17 07:25:05;;;;;;;2.88;1.08;;;;;;;;;;5071625;28;20020;-79
2022/07/17 07:27:31;;;;;;;3.40;1.00;;;;;;;;;;5094776;28;20383;-84
2022/07/17 07:29:56;;;;;;;2.17;0.98;;;;;;;;;;5081231;28;20166;-80
2022/07/17 07:32:22;;;;;;;1.80;0.82;;;;;;;;;;5096036;28;20066;-80
2022/07/17 07:34:47;;;;;;;1.67;0.80;;;;;;;;;;5095650;28;20032;-81
2022/07/17 07:37:13;;;;;;;1.55;0.68;;;;;;;;;;5095369;28;20035;-80
2022/07/17 07:39:38;;;;;;;1.67;0.77;;;;;;;;;;5063036;28;20024;-80
2022/07/17 07:42:04;;;;;;;1.20;0.70;;;;;;;;;;5095677;28;20043;-80
2022/07/17 07:44:29;;;;;;;0.90;0.70;;;;;;;;;;5090223;28;20509;-81
2022/07/17 07:46:55;;;;;;;1.30;0.73;;;;;;;;;;5094901;28;20059;-81
2022/07/17 07:49:20;;;;;;;1.15;0.70;;;;;;;;;;5091929;28;20025;-81
2022/07/17 07:51:46;;;;;;;1.90;0.88;;;;;;;;;;5082587;28;20428;-81
2022/07/17 07:54:11;;;;;;;1.80;0.80;;;;;;;;;;5076773;28;20029;-82
2022/07/17 07:56:37;;;;;;;1.63;0.75;;;;;;;;;;5055504;28;20074;-81
2022/07/17 07:59:03;;;;;;;5.80;1.60;;;;;;;;;;5074504;28;20043;-81
2022/07/17 08:01:28;;;;;;;1.38;0.80;;;;;;;;;;5076526;28;20037;-81
2022/07/17 08:03:54;;;;;;;1.25;0.70;;;;;;;;;;5072132;28;20074;-81
2022/07/17 08:06:19;;;;;;;1.88;0.90;;;;;;;;;;5077070;28;20052;-81
2022/07/17 08:08:44;;;;;;;1.63;0.85;;;;;;;;;;5074867;28;20115;-80
2022/07/17 08:11:10;;;;;;;1.35;0.70;;;;;;;;;;5074189;28;20052;-80
2022/07/17 08:13:35;;;;;;;1.60;0.80;;;;;;;;;;5074992;28;20544;-82
2022/07/17 08:16:01;;;;;;;2.08;1.10;;;;;;;;;;5075168;28;20124;-81
2022/07/17 08:18:27;;;;;;;2.00;1.00;;;;;;;;;;5075483;28;20028;-81
2022/07/17 08:20:53;;;;;;;4.70;1.23;;;;;;;;;;5058624;28;20107;-83
2022/07/17 08:23:18;;;;;;;1.92;0.95;;;;;;;;;;5078022;28;20034;-81
2022/07/17 08:25:44;;;;;;;3.35;0.93;;;;;;;;;;5071980;28;20406;-81
2022/07/17 08:28:09;;;;;;;1.17;0.70;;;;;;;;;;5073190;28;20099;-81
2022/07/17 08:30:36;;;;;;;1.05;0.65;;;;;;;;;;5074936;28;20119;-80
2022/07/17 08:33:05;;;;;;;1.92;0.60;;;;;;;;;;5058179;28;20120;-82
2022/07/17 08:35:30;;;;;;;3.35;0.73;;;;;;;;;;5076667;28;20100;-81
2022/07/17 08:37:56;;;;;;;0.93;0.52;;;;;;;;;;5059636;28;20107;-81
2022/07/17 08:40:22;;;;;;;3.67;0.80;;;;;;;;;;5075210;28;20070;-81
2022/07/17 08:42:48;;;;;;;1.45;0.52;;;;;;;;;;5056710;28;20390;-82
2022/07/17 08:45:13;;;;;;;2.42;0.90;;;;;;;;;;5074813;28;20024;-81
2022/07/17 08:47:39;;;;;;;2.13;0.60;;;;;;;;;;5078228;28;20013;-81
2022/07/17 08:50:04;;;;;;;2.35;0.70;;;;;;;;;;5075129;28;20483;-82
2022/07/17 08:52:30;;;;;;;1.23;0.60;;;;;;;;;;5075269;28;20497;-82
2022/07/17 08:54:56;;;;;;;1.33;0.80;;;;;;;;;;5075619;28;20039;-79
2022/07/17 08:57:22;;;;;;;2.30;0.80;;;;;;;;;;5077349;28;20021;-79
2022/07/17 08:59:47;;;;;;;2.47;0.93;;;;;;;;;;5076027;28;20025;-80
2022/07/17 09:02:13;;;;;;;3.55;0.80;;;;;;;;;;5074907;28;20058;-79
2022/07/17 09:04:39;;;;;;;2.28;0.77;;;;;;;;;;5075087;28;20027;-80
2022/07/17 09:07:05;;;;;;;2.53;0.70;;;;;;;;;;5060188;28;20028;-81
2022/07/17 09:09:30;;;;;;;2.15;0.88;;;;;;;;;;5080851;28;20028;-81
2022/07/17 09:11:58;;;;;;;2.38;0.70;;;;;;;;;;5077633;28;20048;-81
2022/07/17 09:14:24;;;;;;;1.85;0.80;;;;;;;;;;5073355;28;20029;-81
2022/07/17 09:16:50;;;;;;;3.00;1.95;;;;;;;;;;5072518;28;20025;-79
2022/07/17 09:19:29;;;;;;;2.10;1.10;;;;;;;;;;5056301;28;20563;-81
2022/07/17 09:22:14;;;;;;;1.85;0.82;;;;;;;;;;5074264;28;20161;-82
2022/07/17 09:24:44;;;;;;;1.88;0.93;;;;;;;;;;5055226;28;20035;-81
2022/07/17 09:27:09;;;;;;;1.55;0.93;;;;;;;;;;5075811;28;20032;-82
2022/07/17 09:29:35;;;;;;;2.53;0.80;;;;;;;;;;5073616;28;20054;-81
2022/07/17 09:32:00;;;;;;;2.70;0.80;;;;;;;;;;5057382;28;20081;-81
2022/07/17 09:34:26;;;;;;;1.40;0.70;;;;;;;;;;5078978;28;20040;-81
2022/07/17 09:37:01;;;;;;;1.50;0.75;;;;;;;;;;5057997;28;20103;-80
2022/07/17 09:39:36;;;;;;;3.60;0.80;;;;;;;;;;5075924;28;20036;-80
2022/07/17 09:42:03;;;;;;;1.02;0.70;;;;;;;;;;5064703;28;20068;-82
2022/07/17 09:44:28;;;;;;;1.05;0.68;;;;;;;;;;5080765;28;20114;-81
2022/07/17 09:46:53;;;;;;;1.92;0.80;;;;;;;;;;5074736;28;20029;-82
2022/07/17 09:49:19;;;;;;;1.85;0.70;;;;;;;;;;5075706;28;20048;-81
2022/07/17 09:51:44;;;;;;;1.75;0.80;;;;;;;;;;5076981;28;20034;-81
2022/07/17 09:54:13;;;;;;;1.17;0.68;;;;;;;;;;5056270;28;20029;-81
2022/07/17 09:56:38;;;;;;;1.63;0.80;;;;;;;;;;5073111;28;20037;-81
2022/07/17 09:59:10;;;;;;;3.10;0.70;;;;;;;;;;5075195;28;20476;-81
2022/07/17 10:01:36;;;;;;;1.20;0.68;;;;;;;;;;5056152;28;20032;-81
2022/07/17 10:04:02;;;;;;;2.88;1.05;;;;;;;;;;5073521;28;20438;-81
2022/07/17 10:06:28;;;;;;;0.98;0.60;;;;;;;;;;5074033;28;20044;-81
2022/07/17 10:08:53;;;;;;;1.27;0.80;;;;;;;;;;5068383;28;20467;-81
2022/07/17 10:11:22;;;;;;;2.85;1.42;;;;;;;;;;5092980;28;20080;-81
2022/07/17 10:13:48;;;;;;;1.50;0.90;;;;;;;;;;5074338;28;20043;-81
2022/07/17 10:16:14;;;;;;;0.60;0.50;;;;;;;;;;5091665;28;20036;-81
2022/07/17 10:18:43;;;;;;;1.63;0.80;;;;;;;;;;5091893;28;20486;-79
2022/07/17 10:21:09;;;;;;;2.17;1.05;;;;;;;;;;5076560;28;20107;-82
2022/07/17 10:23:34;;;;;;;1.80;0.70;;;;;;;;;;5072674;28;20158;-81
2022/07/17 10:26:00;;;;;;;0.60;0.55;;;;;;;;;;5072337;28;20480;-82
2022/07/17 10:28:25;;;;;;;0.65;0.50;;;;;;;;;;5077304;28;20044;-79
2022/07/17 10:30:51;;;;;;;1.70;0.70;;;;;;;;;;5074861;28;20020;-80
2022/07/17 10:33:17;;;;;;;1.70;0.70;;;;;;;;;;5073392;28;20024;-82
2022/07/17 10:35:44;;;;;;;3.15;0.80;;;;;;;;;;5073373;28;20045;-82
2022/07/17 10:38:13;;;;;;;1.90;0.75;;;;;;;;;;5074847;28;20047;-80
2022/07/17 10:40:39;;;;;;;1.40;0.65;;;;;;;;;;5075012;28;20033;-82
2022/07/17 10:43:05;;;;;;;2.28;0.70;;;;;;;;;;5078302;28;20055;-81
2022/07/17 10:45:42;;;;;;;1.25;0.70;;;;;;;;;;5086168;28;20028;-82
2022/07/17 10:48:11;;;;;;;2.30;0.80;;;;;;;;;;5091413;28;20039;-81
2022/07/17 10:50:36;;;;;;;2.45;0.90;;;;;;;;;;5082765;28;20016;-81
2022/07/17 10:53:03;;;;;;;1.48;0.70;;;;;;;;;;5078607;28;20040;-81
2022/07/17 10:55:29;;;;;;;1.95;0.70;;;;;;;;;;5066999;28;20025;-81
2022/07/17 10:57:55;;;;;;;3.03;0.80;;;;;;;;;;5083635;28;20080;-81
2022/07/17 11:00:20;;;;;;;1.67;0.60;;;;;;;;;;5071178;28;20109;-81
2022/07/17 11:02:45;;;;;;;1.17;0.70;;;;;;;;;;5087534;28;20145;-82
2022/07/17 11:05:12;;;;;;;1.50;0.60;;;;;;;;;;5088582;28;20367;-86
2022/07/17 11:07:52;;;;;;;2.97;0.90;;;;;;;;;;5086585;28;20028;-82
2022/07/17 11:10:18;;;;;;;1.67;0.82;;;;;;;;;;5089430;28;20052;-84
2022/07/17 11:12:43;;;;;;;2.40;0.80;;;;;;;;;;5093039;28;20085;-83
2022/07/17 11:15:09;;;;;;;1.70;0.65;;;;;;;;;;5091803;28;20039;-84
2022/07/17 11:17:35;;;;;;;0.75;0.52;;;;;;;;;;5092956;28;20027;-85
2022/07/17 11:20:01;;;;;;;7.00;0.93;;;;;;;;;;5074942;28;20035;-84
2022/07/17 11:22:27;;;;;;;1.75;0.80;;;;;;;;;;5079666;28;20020;-82
2022/07/17 11:24:52;;;;;;;2.20;0.60;;;;;;;;;;5093184;28;20543;-86
2022/07/17 11:27:18;;;;;;;1.30;0.70;;;;;;;;;;5039164;28;20124;-82
2022/07/17 11:29:43;;;;;;;1.30;0.60;;;;;;;;;;5085489;28;20036;-83
2022/07/17 11:32:09;;;;;;;3.42;0.60;;;;;;;;;;5065220;28;20025;-82
2022/07/17 11:34:34;;;;;;;1.27;0.70;;;;;;;;;;5065413;28;20050;-80
2022/07/17 11:37:00;;;;;;;1.40;0.80;;;;;;;;;;5058818;28;20043;-81
2022/07/17 11:39:26;;;;;;;1.02;0.60;;;;;;;;;;5091312;28;20040;-83
2022/07/17 11:41:52;;;;;;;1.17;0.63;;;;;;;;;;5074895;28;20111;-84
2022/07/17 11:44:18;;;;;;;2.88;0.68;;;;;;;;;;5091073;28;20360;-83
2022/07/17 11:46:47;;;;;;;1.50;0.77;;;;;;;;;;5091733;28;20418;-83
2022/07/17 11:49:25;;;;;;;3.50;0.80;;;;;;;;;;5077246;28;20562;-81
2022/07/17 11:51:51;;;;;;;1.52;0.80;;;;;;;;;;5078261;28;20376;-83
2022/07/17 11:54:16;;;;;;;1.27;0.70;;;;;;;;;;5093970;28;20039;-82
2022/07/17 11:56:42;;;;;;;1.60;0.88;;;;;;;;;;5066231;28;20089;-84
2022/07/17 11:59:08;;;;;;;1.20;0.70;;;;;;;;;;5080203;28;20510;-84
2022/07/17 12:01:41;;;;;;;2.72;1.00;;;;;;;;;;5077310;28;20078;-81
2022/07/17 12:04:10;;;;;;;2.90;0.85;;;;;;;;;;5077855;28;20070;-82
2022/07/17 12:06:35;;;;;;;1.50;0.75;;;;;;;;;;5075184;28;20056;-82
2022/07/17 12:09:01;;;;;;;1.90;0.75;;;;;;;;;;5076677;28;20058;-81
2022/07/17 12:11:26;;;;;;;0.70;0.55;;;;;;;;;;5074332;28;20464;-85
2022/07/17 12:13:52;;;;;;;2.13;0.80;;;;;;;;;;5062516;28;20070;-82
2022/07/17 12:16:20;;;;;;;3.92;1.00;;;;;;;;;;5078625;28;20043;-83
2022/07/17 12:18:56;;;;;;;1.65;0.73;;;;;;;;;;5076896;28;20084;-83
2022/07/17 12:21:21;;;;;;;1.92;0.90;;;;;;;;;;5075031;28;20024;-83
2022/07/17 12:23:55;;;;;;;2.03;0.80;;;;;;;;;;5076481;28;20110;-82
2022/07/17 12:26:21;;;;;;;2.35;0.80;;;;;;;;;;5075174;28;20399;-83
2022/07/17 12:28:46;;;;;;;2.17;1.27;;;;;;;;;;5075911;28;20024;-84
2022/07/17 12:31:12;;;;;;;1.92;0.90;;;;;;;;;;5057176;28;20033;-82
2022/07/17 12:33:37;;;;;;;3.45;0.70;;;;;;;;;;5061379;28;20020;-83
2022/07/17 12:36:03;;;;;;;1.20;0.75;;;;;;;;;;5063338;28;20040;-85
2022/07/17 12:38:29;;;;;;;2.72;0.85;;;;;;;;;;5084230;28;20380;-82
2022/07/17 12:40:55;;;;;;;2.38;0.90;;;;;;;;;;5057243;28;20032;-81
2022/07/17 12:43:21;;;;;;;1.67;0.80;;;;;;;;;;5052418;28;20081;-79
2022/07/17 12:45:46;;;;;;;7.88;1.13;;;;;;;;;;5059354;28;20041;-81
2022/07/17 12:48:12;;;;;;;4.00;1.00;;;;;;;;;;5053179;28;20055;-80
2022/07/17 12:50:38;;;;;;;3.25;0.90;;;;;;;;;;5079651;28;20028;-83
2022/07/17 12:53:03;;;;;;;1.95;1.00;;;;;;;;;;5072849;28;20108;-81
2022/07/17 12:55:29;;;;;;;2.45;1.00;;;;;;;;;;5063000;28;20044;-81
2022/07/17 12:57:54;;;;;;;5.38;1.10;;;;;;;;;;5089627;28;20028;-85
2022/07/17 13:00:20;;;;;;;3.13;1.05;;;;;;;;;;5067544;28;20509;-83
2022/07/17 13:02:45;;;;;;;1.60;1.00;;;;;;;;;;5088403;28;20031;-85
2022/07/17 13:05:11;;;;;;;2.30;0.93;;;;;;;;;;5078598;28;20047;-84
2022/07/17 13:07:36;;;;;;;1.83;0.98;;;;;;;;;;5051557;28;20044;-82
2022/07/17 13:10:02;;;;;;;2.22;1.00;;;;;;;;;;5074057;28;20032;-82
2022/07/17 13:12:28;;;;;;;3.25;1.10;;;;;;;;;;5076596;28;20059;-81
2022/07/17 13:14:53;;;;;;;2.38;1.23;;;;;;;;;;5067833;28;20602;-81
2022/07/17 13:17:19;;;;;;;5.03;1.20;;;;;;;;;;5073815;28;20506;-80
2022/07/17 13:19:44;;;;;;;3.33;1.35;;;;;;;;;;5078501;28;20033;-79
2022/07/17 13:22:10;;;;;;;2.65;1.20;;;;;;;;;;5071864;28;20024;-80
2022/07/17 13:24:35;;;;;;;5.95;1.85;;;;;;;;;;5073200;28;20029;-80
2022/07/17 13:27:01;;;;;;;4.30;2.00;;;;;;;;;;5074329;28;20380;-80
2022/07/17 13:29:26;;;;;;;7.13;3.25;;;;;;;;;;5080429;28;20033;-82
2022/07/17 13:31:53;;;;;;;5.50;3.15;;;;;;;;;;5067016;28;20024;-81
2022/07/17 13:34:18;;;;;;;7.13;2.88;;;;;;;;;;5080519;28;20495;-79
2022/07/17 13:36:44;;;;;;;5.13;2.13;;;;;;;;;;5076743;28;20031;-78
2022/07/17 13:39:09;;;;;;;5.28;2.28;;;;;;;;;;5080513;28;20036;-77
2022/07/17 13:41:36;;;;;;;4.13;1.67;;;;;;;;;;5066716;28;20062;-78
2022/07/17 13:44:02;;;;;;;16.55;4.65;;;;;;;;;;5074546;28;20312;-78
2022/07/17 13:46:27;;;;;;;8.95;2.80;;;;;;;;;;5072166;28;20369;-78
2022/07/17 13:48:53;;;;;;;8.07;2.63;;;;;;;;;;5075086;28;20028;-81
2022/07/17 13:51:18;;;;;;;8.07;3.05;;;;;;;;;;5073063;28;20054;-80
2022/07/17 13:53:44;;;;;;;4.22;1.70;;;;;;;;;;5071412;28;20031;-79
2022/07/17 13:56:09;;;;;;;7.15;2.17;;;;;;;;;;5076702;28;20035;-81
2022/07/17 13:58:35;;;;;;;7.78;2.85;;;;;;;;;;5074843;28;20032;-80
2022/07/17 14:01:01;;;;;;;3.28;1.75;;;;;;;;;;5076506;28;20024;-81
2022/07/17 14:03:26;;;;;;;2.10;1.15;;;;;;;;;;5070029;28;20040;-80
2022/07/17 14:05:52;;;;;;;2.03;1.10;;;;;;;;;;5075634;28;20364;-79
2022/07/17 14:08:17;;;;;;;2.50;1.45;;;;;;;;;;5070960;28;20058;-80
2022/07/17 14:10:43;;;;;;;2.92;1.30;;;;;;;;;;5078420;28;20052;-79
2022/07/17 14:13:09;;;;;;;2.38;1.30;;;;;;;;;;5074379;28;20060;-78
2022/07/17 14:15:34;;;;;;;2.80;1.67;;;;;;;;;;5074200;28;20059;-80
2022/07/17 14:18:00;;;;;;;3.70;1.20;;;;;;;;;;5074274;28;20119;-81
2022/07/17 14:20:26;;;;;;;3.65;1.60;;;;;;;;;;5073869;28;20460;-80
2022/07/17 14:22:51;;;;;;;3.95;1.98;;;;;;;;;;5070233;28;20060;-80
2022/07/17 14:25:17;;;;;;;5.97;1.67;;;;;;;;;;5072548;28;20028;-80
2022/07/17 14:27:42;;;;;;;5.63;1.80;;;;;;;;;;5076418;28;20082;-79
2022/07/17 14:30:09;;;;;;;4.10;1.98;;;;;;;;;;5075510;28;20055;-80
2022/07/17 14:32:35;;;;;;;3.75;1.67;;;;;;;;;;5073335;28;20028;-80
2022/07/17 14:35:00;;;;;;;2.90;1.60;;;;;;;;;;5072470;28;20029;-80
2022/07/17 14:37:25;;;;;;;3.10;1.45;;;;;;;;;;5070117;28;20020;-79